createdAt,value
2022-09-28T00:01:18.285Z,13.10
2022-09-28T00:03:47.511Z,14.20
2022-09-28T00:06:18.803Z,15.20
2022-09-28T00:08:46.996Z,13.40
2022-09-28T00:11:19.025Z,11.50
2022-09-28T00:13:51.852Z,11.50
2022-09-28T00:16:23.052Z,9.40
2022-09-28T00:18:51.574Z,10.20
2022-09-28T00:21:22.504Z,9.90
2022-09-28T00:24:14.383Z,12.40
2022-09-28T00:26:51.338Z,9.40
2022-09-28T00:29:34.434Z,9.30
2022-09-28T00:32:11.861Z,8.50
2022-09-28T00:34:46.109Z,10.50
2022-09-28T00:37:15.177Z,8.90
2022-09-28T00:39:43.611Z,9.00
2022-09-28T00:42:16.292Z,9.60
2022-09-28T00:44:57.466Z,10.10
2022-09-28T00:47:40.486Z,11.20
2022-09-28T00:50:21.670Z,12.40
2022-09-28T00:53:05.420Z,11.70
2022-09-28T00:55:54.209Z,13.70
2022-09-28T00:58:27.667Z,11.40
2022-09-28T01:00:58.280Z,10.60
2022-09-28T01:03:28.307Z,14.30
2022-09-28T01:05:59.262Z,11.40
2022-09-28T01:08:28.549Z,12.50
2022-09-28T01:10:59.494Z,11.90
2022-09-28T01:13:28.365Z,12.90
2022-09-28T01:16:22.497Z,15.30
2022-09-28T01:18:59.117Z,10.90
2022-09-28T01:21:27.496Z,11.20
2022-09-28T01:24:13.793Z,9.60
2022-09-28T01:26:44.833Z,11.40
2022-09-28T01:29:33.630Z,10.50
2022-09-28T01:32:27.565Z,10.80
2022-09-28T01:35:01.834Z,12.10
2022-09-28T01:37:46.850Z,13.50
2022-09-28T01:40:16.006Z,12.50
2022-09-28T01:42:48.209Z,11.90
2022-09-28T01:45:31.525Z,10.60
2022-09-28T01:48:05.140Z,13.20
2022-09-28T01:50:38.465Z,11.30
2022-09-28T01:53:15.697Z,11.50
2022-09-28T01:55:47.890Z,12.10
2022-09-28T01:58:23.633Z,12.30
2022-09-28T02:00:58.324Z,13.20
2022-09-28T02:03:35.254Z,11.20
2022-09-28T02:06:15.958Z,10.90
2022-09-28T02:08:54.318Z,11.90
2022-09-28T02:11:23.055Z,11.40
2022-09-28T02:14:04.091Z,12.80
2022-09-28T02:16:43.585Z,10.80
2022-09-28T02:19:20.698Z,11.90
2022-09-28T02:21:54.501Z,13.80
2022-09-28T02:24:24.633Z,12.80
2022-09-28T02:26:56.581Z,11.50
2022-09-28T02:29:25.133Z,13.00
2022-09-28T02:31:52.946Z,11.80
2022-09-28T02:34:20.896Z,13.30
2022-09-28T02:36:48.863Z,15.60
2022-09-28T02:39:19.194Z,15.80
2022-09-28T02:42:10.678Z,15.40
2022-09-28T02:45:09.395Z,16.70
2022-09-28T02:47:46.375Z,16.60
2022-09-28T02:50:24.336Z,16.50
2022-09-28T02:53:19.583Z,17.80
2022-09-28T02:55:56.423Z,14.70
2022-09-28T02:58:49.313Z,15.20
2022-09-28T03:01:34.837Z,18.00
2022-09-28T03:04:21.412Z,20.10
2022-09-28T03:06:54.960Z,16.50
2022-09-28T03:09:29.823Z,16.20
2022-09-28T03:12:01.594Z,17.50
2022-09-28T03:14:29.353Z,14.30
2022-09-28T03:16:57.066Z,14.80
2022-09-28T03:19:32.139Z,16.40
2022-09-28T03:22:01.132Z,16.20
2022-09-28T03:24:28.996Z,15.40
2022-09-28T03:26:56.758Z,19.00
2022-09-28T03:29:24.571Z,16.60
2022-09-28T03:31:52.612Z,17.80
2022-09-28T03:34:20.677Z,19.40
2022-09-28T03:36:48.734Z,19.00
2022-09-28T03:39:16.711Z,19.10
2022-09-28T03:41:44.771Z,20.30
2022-09-28T03:44:12.984Z,19.00
2022-09-28T03:46:40.710Z,18.00
2022-09-28T03:49:10.341Z,18.50
2022-09-28T03:51:38.284Z,18.30
2022-09-28T03:54:06.215Z,18.40
2022-09-28T03:56:34.114Z,19.50
2022-09-28T03:59:04.337Z,18.40
2022-09-28T04:01:32.480Z,20.20
2022-09-28T04:04:00.589Z,21.30
2022-09-28T04:06:28.344Z,17.90
2022-09-28T04:08:56.123Z,19.50
2022-09-28T04:11:24.388Z,19.60
2022-09-28T04:13:52.249Z,18.60
2022-09-28T04:16:20.051Z,17.70
2022-09-28T04:18:48.708Z,19.00
2022-09-28T04:21:19.776Z,19.10
2022-09-28T04:23:49.031Z,17.90
2022-09-28T04:26:22.942Z,18.20
2022-09-28T04:29:09.442Z,17.50
2022-09-28T04:31:44.482Z,17.20
2022-09-28T04:34:15.112Z,19.50
2022-09-28T04:36:46.733Z,20.10
2022-09-28T04:39:17.089Z,20.50
2022-09-28T04:41:47.923Z,19.20
2022-09-28T04:44:16.000Z,19.90
2022-09-28T04:46:43.860Z,23.60
2022-09-28T04:49:12.064Z,21.10
2022-09-28T04:51:39.792Z,19.90
2022-09-28T04:54:07.554Z,19.70
2022-09-28T04:56:35.525Z,19.10
2022-09-28T04:59:03.311Z,19.60
2022-09-28T05:01:31.549Z,18.00
2022-09-28T05:03:59.632Z,18.30
2022-09-28T05:06:30.702Z,22.30
2022-09-28T05:08:58.666Z,19.40
2022-09-28T05:11:26.916Z,17.40
2022-09-28T05:13:55.292Z,17.10
2022-09-28T05:16:25.250Z,17.50
2022-09-28T05:18:57.083Z,18.20
2022-09-28T05:21:26.570Z,17.90
2022-09-28T05:23:56.283Z,18.10
2022-09-28T05:26:24.555Z,19.50
2022-09-28T05:28:52.418Z,18.60
2022-09-28T05:31:20.251Z,18.50
2022-09-28T05:33:48.151Z,19.70
2022-09-28T05:36:15.933Z,17.00
2022-09-28T05:38:43.788Z,23.50
2022-09-28T05:41:11.883Z,20.80
2022-09-28T05:43:39.817Z,17.90
2022-09-28T05:46:08.362Z,15.70
2022-09-28T05:48:36.648Z,18.20
2022-09-28T05:51:04.775Z,21.20
2022-09-28T05:53:32.714Z,14.60
2022-09-28T05:56:00.785Z,14.90
2022-09-28T05:58:28.855Z,16.30
2022-09-28T06:00:57.603Z,16.20
2022-09-28T06:03:27.335Z,16.90
2022-09-28T06:05:55.629Z,14.80
2022-09-28T06:08:23.390Z,15.30
2022-09-28T06:10:51.152Z,17.90
2022-09-28T06:13:18.930Z,19.20
2022-09-28T06:15:46.782Z,16.30
2022-09-28T06:18:15.175Z,18.20
2022-09-28T06:20:43.537Z,15.60
2022-09-28T06:23:13.244Z,14.90
2022-09-28T06:25:41.325Z,16.10
2022-09-28T06:28:14.452Z,18.90
2022-09-28T06:30:44.060Z,17.30
2022-09-28T06:33:14.128Z,16.00
2022-09-28T06:35:42.591Z,16.10
2022-09-28T06:38:11.305Z,16.10
2022-09-28T06:40:39.635Z,17.30
2022-09-28T06:43:11.742Z,14.20
2022-09-28T06:45:39.598Z,16.50
2022-09-28T06:48:08.388Z,19.60
2022-09-28T06:50:42.947Z,14.20
2022-09-28T06:53:13.854Z,17.00
2022-09-28T06:55:43.764Z,15.10
2022-09-28T06:58:14.189Z,15.20
2022-09-28T07:00:42.565Z,15.10
2022-09-28T07:03:16.166Z,16.50
2022-09-28T07:05:46.692Z,15.50
2022-09-28T07:08:16.077Z,15.50
2022-09-28T07:10:45.750Z,16.90
2022-09-28T07:13:36.321Z,16.20
2022-09-28T07:16:02.942Z,13.10
2022-09-28T07:18:30.763Z,13.70
2022-09-28T07:20:59.588Z,13.90
2022-09-28T07:23:28.785Z,15.70
2022-09-28T07:25:58.347Z,14.60
2022-09-28T07:28:26.364Z,15.50
2022-09-28T07:30:57.218Z,17.90
2022-09-28T07:33:32.765Z,17.10
2022-09-28T07:38:34.613Z,17.10
2022-09-28T07:41:11.591Z,16.70
2022-09-28T07:43:40.111Z,15.60
2022-09-28T07:46:12.362Z,16.80
2022-09-28T07:48:42.914Z,15.60
2022-09-28T07:51:10.735Z,14.40
2022-09-28T07:53:38.729Z,16.70
2022-09-28T07:56:09.064Z,15.40
2022-09-28T07:58:38.840Z,17.20
2022-09-28T08:01:10.532Z,16.70
2022-09-28T08:03:39.552Z,15.30
2022-09-28T08:06:11.347Z,16.80
2022-09-28T08:08:44.024Z,15.30
2022-09-28T08:11:13.425Z,13.10
2022-09-28T08:13:41.692Z,13.40
2022-09-28T08:16:09.771Z,12.20
2022-09-28T08:18:37.940Z,12.20
2022-09-28T08:21:25.263Z,12.20
2022-09-28T08:23:53.332Z,12.80
2022-09-28T08:26:21.915Z,13.50
2022-09-28T08:28:50.349Z,11.60
2022-09-28T08:31:18.275Z,11.30
2022-09-28T08:33:46.229Z,13.20
2022-09-28T08:36:14.300Z,11.60
2022-09-28T08:38:42.678Z,10.20
2022-09-28T08:41:47.977Z,10.40
2022-09-28T08:44:24.485Z,9.70
2022-09-28T08:47:06.777Z,10.30
2022-09-28T08:49:47.567Z,8.20
2022-09-28T08:52:25.192Z,10.10
2022-09-28T08:55:24.866Z,8.50
2022-09-28T08:58:05.222Z,9.70
2022-09-28T09:00:39.949Z,10.40
2022-09-28T09:03:13.657Z,8.20
2022-09-28T09:05:56.164Z,10.00
2022-09-28T09:09:08.772Z,10.20
2022-09-28T09:11:50.341Z,9.10
2022-09-28T09:14:18.421Z,7.70
2022-09-28T09:17:08.314Z,7.40
2022-09-28T09:19:49.598Z,9.00
2022-09-28T09:22:27.701Z,12.20
2022-09-28T09:25:19.936Z,6.90
2022-09-28T09:27:56.507Z,6.00
2022-09-28T09:30:30.349Z,10.60
2022-09-28T09:33:31.351Z,5.00
2022-09-28T09:36:21.647Z,9.50
2022-09-28T09:39:05.655Z,5.90
2022-09-28T09:41:48.201Z,6.00
2022-09-28T09:44:40.640Z,5.90
2022-09-28T09:47:14.959Z,7.30
2022-09-28T09:50:11.495Z,6.60
2022-09-28T09:53:18.672Z,5.40
2022-09-28T09:55:50.542Z,4.10
2022-09-28T09:58:44.929Z,6.10
2022-09-28T10:01:16.204Z,5.80
2022-09-28T10:03:48.352Z,4.00
2022-09-28T10:06:20.403Z,4.80
2022-09-28T10:09:23.802Z,4.50
2022-09-28T10:11:52.215Z,4.80
2022-09-28T10:14:25.163Z,7.50
2022-09-28T10:16:55.906Z,6.00
2022-09-28T10:19:35.642Z,6.40
2022-09-28T10:22:05.656Z,5.10
2022-09-28T10:24:45.247Z,7.60
2022-09-28T10:27:19.160Z,5.10
2022-09-28T10:30:00.908Z,6.40
2022-09-28T10:32:46.339Z,5.40
2022-09-28T10:35:24.808Z,6.60
2022-09-28T10:38:13.133Z,3.80
2022-09-28T10:40:44.958Z,4.80
2022-09-28T10:43:22.689Z,5.60
2022-09-28T10:46:08.260Z,4.70
2022-09-28T10:48:56.558Z,5.70
2022-09-28T10:51:44.140Z,2.80
2022-09-28T10:54:20.182Z,3.70
2022-09-28T10:56:49.501Z,5.90
2022-09-28T10:59:29.446Z,4.00
2022-09-28T11:02:02.788Z,3.80
2022-09-28T11:04:38.796Z,5.90
2022-09-28T11:07:18.237Z,4.30
2022-09-28T11:09:50.092Z,4.00
2022-09-28T11:12:24.614Z,6.40
2022-09-28T11:15:06.405Z,3.50
2022-09-28T11:17:43.998Z,4.00
2022-09-28T11:20:28.116Z,3.20
2022-09-28T11:23:20.490Z,8.00
2022-09-28T11:26:01.970Z,4.00
2022-09-28T11:28:33.465Z,3.40
2022-09-28T11:31:02.757Z,3.40
2022-09-28T11:33:30.894Z,3.60
2022-09-28T11:36:14.659Z,6.40
2022-09-28T11:39:18.110Z,3.70
2022-09-28T11:42:08.012Z,4.80
2022-09-28T11:44:40.380Z,4.40
2022-09-28T11:47:47.262Z,3.30
2022-09-28T11:50:24.889Z,4.80
2022-09-28T11:52:52.617Z,3.20
2022-09-28T11:55:54.280Z,3.10
2022-09-28T11:58:31.652Z,5.00
2022-09-28T12:01:23.900Z,6.40
2022-09-28T12:04:02.976Z,5.40
2022-09-28T12:06:40.828Z,5.10
2022-09-28T12:09:20.988Z,7.10
2022-09-28T12:11:54.788Z,6.50
2022-09-28T12:14:41.390Z,4.70
2022-09-28T12:17:36.747Z,7.00
2022-09-28T12:20:25.865Z,6.90
2022-09-28T12:22:59.568Z,7.40
2022-09-28T12:25:33.557Z,5.30
2022-09-28T12:28:07.797Z,6.40
2022-09-28T12:30:40.894Z,4.40
2022-09-28T12:33:13.355Z,5.40
2022-09-28T12:36:13.685Z,4.20
2022-09-28T12:39:40.974Z,4.80
2022-09-28T12:42:06.385Z,3.50
2022-09-28T12:44:59.755Z,3.80
2022-09-28T12:47:48.764Z,3.60
2022-09-28T12:50:41.579Z,4.20
2022-09-28T12:53:26.076Z,3.50
2022-09-28T12:56:04.184Z,5.90
2022-09-28T12:58:49.353Z,4.10
2022-09-28T13:01:40.138Z,6.60
2022-09-28T13:04:46.012Z,4.00
2022-09-28T13:07:22.192Z,6.20
2022-09-28T13:10:02.238Z,5.10
2022-09-28T13:12:39.408Z,7.60
2022-09-28T13:15:15.571Z,6.90
2022-09-28T13:18:01.970Z,6.40
2022-09-28T13:20:43.555Z,7.50
2022-09-28T13:23:26.573Z,6.50
2022-09-28T13:26:19.734Z,8.00
2022-09-28T13:28:50.366Z,6.20
2022-09-28T13:31:31.806Z,5.80
2022-09-28T13:34:03.607Z,4.20
2022-09-28T13:36:31.369Z,5.60
2022-09-28T13:39:00.975Z,6.20
2022-09-28T13:41:40.548Z,5.50
2022-09-28T13:44:11.079Z,3.20
2022-09-28T13:47:00.720Z,6.60
2022-09-28T13:49:42.718Z,2.40
2022-09-28T13:52:44.377Z,3.50
2022-09-28T13:55:18.176Z,3.70
2022-09-28T13:57:54.956Z,2.70
2022-09-28T14:00:45.658Z,5.10
2022-09-28T14:03:26.016Z,3.40
2022-09-28T14:06:27.217Z,2.40
2022-09-28T14:09:13.046Z,4.40
2022-09-28T14:14:14.267Z,5.70
2022-09-28T14:16:42.959Z,4.30
2022-09-28T14:19:24.491Z,4.20
2022-09-28T14:22:13.742Z,4.60
2022-09-28T14:25:06.698Z,3.90
2022-09-28T14:28:01.241Z,4.00
2022-09-28T14:30:38.423Z,5.40
2022-09-28T14:33:28.067Z,5.70
2022-09-28T14:36:02.781Z,4.30
2022-09-28T14:39:03.828Z,4.80
2022-09-28T14:41:43.354Z,4.60
2022-09-28T14:44:13.273Z,3.60
2022-09-28T14:46:45.725Z,6.90
2022-09-28T14:49:25.210Z,4.20
2022-09-28T14:51:52.942Z,5.40
2022-09-28T14:54:22.841Z,4.20
2022-09-28T14:56:53.522Z,3.90
2022-09-28T14:59:22.788Z,5.90
2022-09-28T15:01:51.777Z,5.20
2022-09-28T15:04:20.472Z,5.70
2022-09-28T15:06:50.887Z,6.30
2022-09-28T15:09:35.202Z,4.10
2022-09-28T15:12:07.819Z,4.90
2022-09-28T15:14:45.211Z,4.20
2022-09-28T15:17:19.318Z,4.70
2022-09-28T15:20:41.862Z,8.90
2022-09-28T15:23:27.290Z,7.40
2022-09-28T15:25:55.523Z,15.50
2022-09-28T15:28:24.715Z,16.60
2022-09-28T15:31:00.456Z,25.60
2022-09-28T15:33:51.370Z,14.30
2022-09-28T15:36:26.613Z,10.40
2022-09-28T15:39:00.419Z,8.00
2022-09-28T15:41:29.099Z,9.00
2022-09-28T15:44:32.496Z,8.50
2022-09-28T15:47:05.377Z,9.90
2022-09-28T15:49:46.287Z,9.10
2022-09-28T15:52:28.349Z,8.60
2022-09-28T15:54:57.750Z,9.10
2022-09-28T15:57:38.381Z,8.90
2022-09-28T16:00:22.090Z,7.30
2022-09-28T16:03:06.788Z,10.50
2022-09-28T16:05:58.443Z,7.30
2022-09-28T16:08:42.394Z,7.10
2022-09-28T16:11:35.664Z,6.00
2022-09-28T16:14:21.883Z,6.10
2022-09-28T16:16:51.870Z,6.90
2022-09-28T16:19:28.491Z,5.80
2022-09-28T16:22:00.000Z,6.90
2022-09-28T16:24:38.688Z,8.00
2022-09-28T16:27:28.777Z,8.10
2022-09-28T16:30:21.932Z,7.20
2022-09-28T16:33:01.545Z,7.90
2022-09-28T16:35:32.317Z,11.00
2022-09-28T16:38:16.661Z,8.30
2022-09-28T16:40:49.732Z,9.80
2022-09-28T16:43:24.953Z,8.30
2022-09-28T16:45:56.868Z,8.30
2022-09-28T16:48:30.409Z,12.20
2022-09-28T16:50:59.317Z,8.10
2022-09-28T16:53:46.248Z,9.10
2022-09-28T16:56:14.560Z,21.40
2022-09-28T16:58:42.644Z,15.00
2022-09-28T17:01:12.635Z,15.30
2022-09-28T17:03:47.068Z,14.60
2022-09-28T17:06:17.253Z,13.40
2022-09-28T17:08:45.684Z,13.70
2022-09-28T17:11:20.507Z,14.40
2022-09-28T17:13:52.627Z,11.80
2022-09-28T17:16:42.629Z,12.50
2022-09-28T17:19:23.998Z,15.70
2022-09-28T17:21:52.878Z,12.40
2022-09-28T17:24:21.042Z,11.30
2022-09-28T17:26:51.314Z,8.40
2022-09-28T17:29:19.767Z,12.00
2022-09-28T17:31:48.337Z,17.90
2022-09-28T17:34:16.755Z,19.50
2022-09-28T17:36:48.527Z,16.50
2022-09-28T17:39:21.618Z,15.30
2022-09-28T17:41:50.466Z,14.70
2022-09-28T17:44:21.155Z,16.70
2022-09-28T17:46:52.731Z,13.60
2022-09-28T17:49:23.498Z,12.40
2022-09-28T17:51:54.445Z,12.00
2022-09-28T17:54:26.837Z,13.20
2022-09-28T17:56:55.099Z,12.70
2022-09-28T17:59:23.790Z,13.80
2022-09-28T18:01:51.829Z,11.80
2022-09-28T18:04:47.301Z,11.90
2022-09-28T18:07:18.492Z,8.80
2022-09-28T18:10:05.599Z,9.40
2022-09-28T18:12:35.586Z,7.90
2022-09-28T18:15:03.475Z,9.80
2022-09-28T18:17:31.343Z,12.60
2022-09-28T18:19:59.108Z,8.60
2022-09-28T18:22:31.814Z,7.90
2022-09-28T18:25:09.947Z,6.70
2022-09-28T18:27:45.923Z,9.20
2022-09-28T18:30:18.195Z,8.90
2022-09-28T18:32:45.949Z,9.20
2022-09-28T18:35:13.652Z,6.00
2022-09-28T18:37:41.663Z,7.50
2022-09-28T18:40:13.030Z,5.60
2022-09-28T18:42:42.128Z,6.50
2022-09-28T18:45:11.348Z,6.00
2022-09-28T18:47:40.111Z,6.00
2022-09-28T18:50:08.823Z,8.90
2022-09-28T18:52:37.475Z,5.50
2022-09-28T18:55:07.662Z,6.50
2022-09-28T18:57:36.236Z,6.60
2022-09-28T19:00:06.840Z,9.60
2022-09-28T19:02:35.695Z,7.60
2022-09-28T19:05:05.820Z,10.40
2022-09-28T19:07:34.603Z,10.30
2022-09-28T19:10:02.473Z,9.10
2022-09-28T19:12:30.642Z,7.70
2022-09-28T19:14:59.842Z,7.10
2022-09-28T19:17:27.705Z,7.30
2022-09-28T19:19:55.508Z,13.00
2022-09-28T19:22:23.225Z,7.70
2022-09-28T19:24:51.096Z,9.90
2022-09-28T19:27:18.963Z,10.40
2022-09-28T19:29:46.825Z,11.40
2022-09-28T19:32:15.926Z,11.90
2022-09-28T19:34:43.684Z,12.00
2022-09-28T19:37:11.405Z,12.00
2022-09-28T19:39:39.161Z,11.20
2022-09-28T19:42:07.188Z,9.90
2022-09-28T19:44:35.966Z,12.10
2022-09-28T19:47:07.071Z,14.60
2022-09-28T19:49:38.665Z,13.10
2022-09-28T19:52:16.393Z,13.70
2022-09-28T19:54:57.086Z,15.80
2022-09-28T19:57:27.942Z,14.00
2022-09-28T20:00:01.705Z,13.00
2022-09-28T20:02:30.592Z,16.50
2022-09-28T20:04:58.520Z,16.20
2022-09-28T20:07:26.280Z,14.50
2022-09-28T20:09:54.145Z,13.60
2022-09-28T20:12:22.546Z,12.10
2022-09-28T20:14:50.390Z,12.90
2022-09-28T20:17:19.484Z,15.00
2022-09-28T20:19:48.167Z,13.00
2022-09-28T20:22:17.164Z,14.40
2022-09-28T20:24:44.931Z,12.90
2022-09-28T20:27:12.792Z,11.60
2022-09-28T20:29:40.591Z,12.10
2022-09-28T20:32:08.979Z,13.30
2022-09-28T20:34:36.795Z,12.00
2022-09-28T20:37:04.559Z,13.00
2022-09-28T20:39:33.257Z,10.80
2022-09-28T20:42:01.108Z,13.00
2022-09-28T20:44:28.974Z,14.00
2022-09-28T20:46:56.888Z,12.80
2022-09-28T20:49:24.808Z,11.00
2022-09-28T20:51:52.982Z,10.60
2022-09-28T20:54:21.918Z,11.40
2022-09-28T20:56:50.006Z,12.00
2022-09-28T20:59:18.221Z,10.10
2022-09-28T21:01:46.012Z,9.60
2022-09-28T21:04:13.948Z,10.20
2022-09-28T21:06:42.521Z,11.30
2022-09-28T21:09:11.469Z,9.90
2022-09-28T21:11:39.557Z,9.60
2022-09-28T21:14:09.689Z,13.10
2022-09-28T21:16:37.998Z,10.10
2022-09-28T21:19:05.826Z,12.90
2022-09-28T21:21:33.580Z,9.40
2022-09-28T21:24:02.245Z,8.90
2022-09-28T21:26:31.156Z,7.80
2022-09-28T21:29:00.092Z,8.50
2022-09-28T21:31:31.671Z,8.20
2022-09-28T21:33:59.763Z,8.90
2022-09-28T21:36:27.507Z,8.90
2022-09-28T21:38:55.624Z,9.30
2022-09-28T21:41:24.936Z,17.40
2022-09-28T21:43:52.768Z,9.40
2022-09-28T21:46:20.729Z,10.20
2022-09-28T21:48:53.714Z,18.90
2022-09-28T21:51:22.042Z,12.50
2022-09-28T21:53:50.102Z,13.10
2022-09-28T21:56:17.972Z,11.10
2022-09-28T21:58:46.077Z,11.00
2022-09-28T22:01:19.832Z,12.90
2022-09-28T22:03:52.960Z,13.70
2022-09-28T22:06:23.155Z,13.50
2022-09-28T22:08:51.225Z,10.20
2022-09-28T22:11:22.264Z,11.00
2022-09-28T22:13:52.687Z,12.80
2022-09-28T22:16:23.976Z,10.70
2022-09-28T22:18:52.514Z,11.50
2022-09-28T22:21:23.042Z,11.10
2022-09-28T22:23:51.214Z,10.00
2022-09-28T22:26:25.411Z,9.20
2022-09-28T22:28:58.781Z,12.00
2022-09-28T22:31:29.449Z,10.10
2022-09-28T22:33:58.108Z,9.30
2022-09-28T22:36:26.316Z,10.30
2022-09-28T22:38:55.424Z,10.60
2022-09-28T22:41:24.602Z,11.40
2022-09-28T22:43:54.418Z,10.50
2022-09-28T22:46:25.390Z,10.40
2022-09-28T22:48:55.886Z,10.70
2022-09-28T22:51:25.324Z,10.40
2022-09-28T22:53:53.249Z,10.80
2022-09-28T22:56:21.013Z,10.10
2022-09-28T22:58:48.878Z,9.90
2022-09-28T23:01:23.120Z,9.90
2022-09-28T23:03:52.910Z,13.00
2022-09-28T23:06:23.377Z,10.10
2022-09-28T23:08:52.022Z,11.80
2022-09-28T23:11:20.285Z,12.20
2022-09-28T23:13:56.434Z,12.50
2022-09-28T23:16:25.858Z,13.20
2022-09-28T23:18:55.460Z,12.10
2022-09-28T23:21:26.068Z,11.30
2022-09-28T23:24:01.224Z,12.40
2022-09-28T23:26:32.579Z,9.50
2022-09-28T23:29:00.746Z,10.30
2022-09-28T23:31:33.138Z,12.20
2022-09-28T23:34:05.692Z,11.70
2022-09-28T23:36:34.263Z,9.80
2022-09-28T23:39:03.368Z,14.20
2022-09-28T23:41:31.437Z,11.30
2022-09-28T23:43:59.207Z,12.00
2022-09-28T23:46:27.333Z,12.30
2022-09-28T23:48:55.150Z,13.60
2022-09-28T23:51:22.922Z,14.50
2022-09-28T23:53:50.953Z,15.10
2022-09-28T23:56:18.713Z,14.70
2022-09-28T23:58:46.420Z,18.70
